Time;durP1;ratioP1;P1;durP2;ratioP2;P2;SDS_P1;SDS_P2;PMS_P1;PMS_P2;Temp;Humidity;BMP_temperature;BMP_pressure;BME280_temperature;BME280_humidity;BME280_pressure;Samples;Min_cycle;Max_cycle;Signal;HPM_P1;HPM_P2
2023/01/23 00:01:42;;;;;;;47.27;27.30;;;1.20;8.70;;;;;;5022974;28;20207;-79
2023/01/23 00:04:11;;;;;;;60.20;33.53;;;1.20;1.00;;;;;;5023032;28;20218;-78
2023/01/23 00:06:36;;;;;;;23.58;16.80;;;1.20;1.00;;;;;;5003170;28;20426;-79
2023/01/23 00:09:02;;;;;;;79.83;43.33;;;1.20;1.00;;;;;;5006988;28;20202;-78
2023/01/23 00:11:29;;;;;;;60.80;34.07;;;1.20;1.00;;;;;;5006837;28;20218;-79
2023/01/23 00:13:56;;;;;;;27.45;17.92;;;1.20;91.20;;;;;;5004588;28;20449;-79
2023/01/23 00:16:23;;;;;;;25.63;16.40;;;1.10;99.90;;;;;;5006235;28;20207;-79
2023/01/23 00:18:50;;;;;;;41.70;24.63;;;1.20;99.90;;;;;;5006319;28;20843;-79
2023/01/23 00:21:18;;;;;;;56.47;33.30;;;1.20;99.90;;;;;;5007889;28;20190;-78
2023/01/23 00:23:46;;;;;;;64.40;38.60;;;1.20;99.90;;;;;;5006431;28;20183;-80
2023/01/23 00:26:17;;;;;;;54.57;32.57;;;1.10;99.90;;;;;;5006825;28;20688;-79
2023/01/23 00:28:43;;;;;;;35.60;23.10;;;1.10;99.90;;;;;;5007058;28;20203;-79
2023/01/23 00:31:12;;;;;;;34.40;22.63;;;1.10;99.90;;;;;;5006686;28;20293;-79
2023/01/23 00:33:43;;;;;;;30.03;19.17;;;1.10;99.90;;;;;;5005732;28;20282;-80
2023/01/23 00:36:09;;;;;;;25.27;16.57;;;1.10;1.00;;;;;;5008028;28;20266;-79
2023/01/23 00:38:35;;;;;;;23.27;14.73;;;1.10;1.00;;;;;;5006984;28;20194;-79
2023/01/23 00:41:01;;;;;;;19.37;13.40;;;1.00;1.00;;;;;;5005906;28;20191;-79
2023/01/23 00:43:28;;;;;;;23.43;13.93;;;1.10;1.00;;;;;;5006584;28;20550;-78
2023/01/23 00:45:54;;;;;;;23.67;15.37;;;1.00;1.00;;;;;;5006318;28;20211;-80
2023/01/23 00:48:20;;;;;;;23.03;15.10;;;1.10;1.00;;;;;;5005855;28;20196;-80
2023/01/23 00:50:46;;;;;;;25.13;16.30;;;1.10;1.00;;;;;;5007149;28;20215;-78
2023/01/23 00:53:12;;;;;;;23.23;16.00;;;1.10;1.00;;;;;;5007681;28;20535;-79
2023/01/23 00:55:37;;;;;;;23.70;13.90;;;1.10;1.00;;;;;;5005172;28;20211;-79
2023/01/23 00:58:03;;;;;;;23.13;13.90;;;1.10;1.00;;;;;;5007616;28;20187;-79
2023/01/23 01:00:29;;;;;;;22.13;14.47;;;1.00;1.00;;;;;;5005991;28;20207;-79
2023/01/23 01:02:54;;;;;;;23.23;15.43;;;1.00;99.90;;;;;;5007423;28;20194;-78
2023/01/23 01:05:20;;;;;;;26.00;17.30;;;1.10;99.90;;;;;;5006823;28;20183;-78
2023/01/23 01:07:46;;;;;;;22.07;13.47;;;1.00;99.90;;;;;;5006996;28;20191;-79
2023/01/23 01:10:12;;;;;;;20.37;14.37;;;1.00;99.90;;;;;;5005055;28;20210;-79
2023/01/23 01:12:38;;;;;;;18.47;13.10;;;1.00;99.90;;;;;;5007534;28;20545;-79
2023/01/23 01:15:05;;;;;;;20.57;14.23;;;1.00;99.90;;;;;;5005676;28;20259;-79
2023/01/23 01:17:30;;;;;;;19.13;13.77;;;1.00;99.90;;;;;;5005968;28;20684;-81
2023/01/23 01:19:56;;;;;;;19.87;13.73;;;1.00;99.90;;;;;;5022357;28;20270;-80
2023/01/23 01:22:21;;;;;;;19.07;12.77;;;1.00;99.90;;;;;;5006559;28;20191;-80
2023/01/23 01:24:47;;;;;;;20.70;12.63;;;1.00;99.90;;;;;;5005342;28;20222;-80
2023/01/23 01:27:13;;;;;;;20.47;13.70;;;1.00;99.90;;;;;;5007013;28;21238;-80
2023/01/23 01:29:38;;;;;;;19.73;13.03;;;1.00;99.90;;;;;;5005669;28;20204;-79
2023/01/23 01:32:04;;;;;;;22.23;13.50;;;1.00;99.90;;;;;;5005367;28;20187;-81
2023/01/23 01:34:29;;;;;;;20.37;13.50;;;1.10;99.90;;;;;;5021579;28;20203;-81
2023/01/23 01:36:55;;;;;;;17.83;12.40;;;1.10;99.90;;;;;;5006476;28;20203;-79
2023/01/23 01:39:20;;;;;;;17.23;12.20;;;1.10;99.90;;;;;;5005456;28;20196;-79
2023/01/23 01:41:46;;;;;;;18.97;13.23;;;1.20;99.90;;;;;;5006629;28;20250;-81
2023/01/23 01:44:17;;;;;;;19.80;13.20;;;1.10;99.90;;;;;;5006563;28;20214;-80
2023/01/23 01:46:44;;;;;;;19.63;13.17;;;1.10;99.90;;;;;;5005685;28;20226;-79
2023/01/23 01:49:15;;;;;;;18.70;12.97;;;1.10;99.90;;;;;;5005227;28;20771;-79
2023/01/23 01:51:54;;;;;;;18.83;12.77;;;1.10;88.30;;;;;;5005187;28;20195;-81
2023/01/23 01:54:29;;;;;;;21.97;13.47;;;1.10;1.00;;;;;;5005306;28;21175;-79
2023/01/23 01:57:02;;;;;;;21.93;14.57;;;1.10;1.00;;;;;;5004918;28;20192;-80
2023/01/23 01:59:38;;;;;;;20.80;12.93;;;1.10;1.00;;;;;;5005221;28;20187;-79
2023/01/23 02:02:11;;;;;;;20.23;13.13;;;1.00;1.00;;;;;;5004538;28;20190;-79
2023/01/23 02:04:42;;;;;;;20.37;13.47;;;1.00;1.00;;;;;;5004099;28;20270;-80
2023/01/23 02:07:20;;;;;;;20.70;14.40;;;1.00;1.00;;;;;;5006415;28;20249;-79
2023/01/23 02:09:48;;;;;;;19.07;13.83;;;1.00;4.40;;;;;;5004781;28;20210;-80
2023/01/23 02:12:13;;;;;;;18.07;12.67;;;1.00;95.10;;;;;;5020781;28;20207;-79
2023/01/23 02:14:39;;;;;;;17.77;12.50;;;1.00;99.90;;;;;;5004895;28;20187;-79
2023/01/23 02:17:05;;;;;;;19.63;13.60;;;1.00;99.90;;;;;;5003747;28;20238;-80
2023/01/23 02:19:44;;;;;;;19.10;13.50;;;1.10;99.90;;;;;;5003059;28;20190;-79
2023/01/23 02:22:35;;;;;;;17.67;12.07;;;1.10;76.30;;;;;;5004698;28;20249;-80
2023/01/23 02:25:00;;;;;;;18.87;13.03;;;1.10;95.40;;;;;;5021031;28;20792;-79
2023/01/23 02:27:26;;;;;;;20.13;13.27;;;1.10;8.50;;;;;;5004414;28;20290;-79
2023/01/23 02:29:55;;;;;;;20.80;14.23;;;1.00;28.00;;;;;;5005962;28;20266;-79
2023/01/23 02:32:23;;;;;;;21.77;14.83;;;1.00;78.60;;;;;;5005967;28;20206;-80
2023/01/23 02:34:50;;;;;;;21.77;15.67;;;0.90;99.90;;;;;;5005310;28;20657;-80
2023/01/23 02:37:17;;;;;;;21.63;15.17;;;0.90;99.90;;;;;;5005100;28;20199;-80
2023/01/23 02:39:42;;;;;;;22.27;15.00;;;0.90;99.90;;;;;;5004256;28;20604;-80
2023/01/23 02:42:08;;;;;;;26.43;15.67;;;0.90;99.90;;;;;;5004099;28;20282;-79
2023/01/23 02:44:34;;;;;;;23.90;15.77;;;0.90;1.00;;;;;;5004383;28;20213;-80
2023/01/23 02:47:03;;;;;;;23.87;15.63;;;0.90;1.00;;;;;;5004477;28;20202;-78
2023/01/23 02:49:30;;;;;;;23.23;16.37;;;0.90;1.00;;;;;;5020377;28;20211;-80
2023/01/23 02:51:56;;;;;;;20.90;13.93;;;0.90;1.00;;;;;;5003583;28;20249;-79
2023/01/23 02:54:22;;;;;;;19.07;13.70;;;0.90;1.00;;;;;;5005636;28;20645;-80
2023/01/23 02:56:48;;;;;;;20.43;13.27;;;0.90;1.00;;;;;;5008205;28;20198;-80
2023/01/23 03:01:59;;;;;;;19.37;13.77;;;0.90;6.90;;;;;;5006109;28;20194;-80
2023/01/23 03:04:24;;;;;;;20.50;13.63;;;0.90;99.90;;;;;;5003893;28;20229;-79
2023/01/23 03:06:50;;;;;;;20.03;13.43;;;0.90;99.90;;;;;;5020794;28;20211;-80
2023/01/23 03:09:16;;;;;;;19.37;13.67;;;0.90;99.90;;;;;;5003927;28;20210;-80
2023/01/23 03:11:44;;;;;;;25.05;16.90;;;0.80;99.90;;;;;;5005250;28;20430;-80
2023/01/23 03:14:15;;;;;;;21.23;14.00;;;0.80;99.90;;;;;;5021044;28;20233;-80
2023/01/23 03:16:41;;;;;;;19.13;12.90;;;0.90;99.90;;;;;;5004339;28;20692;-79
2023/01/23 03:19:08;;;;;;;20.60;13.77;;;0.90;1.00;;;;;;5005655;28;21082;-79
2023/01/23 03:21:39;;;;;;;17.53;12.20;;;0.90;1.00;;;;;;5004566;28;20188;-79
2023/01/23 03:24:09;;;;;;;17.43;11.93;;;0.90;1.00;;;;;;5004060;28;20180;-80
2023/01/23 03:26:37;;;;;;;23.03;13.43;;;0.90;1.00;;;;;;5005391;28;20195;-80
2023/01/23 03:31:47;;;;;;;18.07;12.43;;;0.80;1.00;;;;;;5005768;28;20195;-80
2023/01/23 03:34:13;;;;;;;18.27;12.13;;;0.70;1.00;;;;;;5006234;28;20942;-79
2023/01/23 03:36:40;;;;;;;18.80;11.97;;;0.80;1.00;;;;;;5007952;28;20296;-79
2023/01/23 03:41:51;;;;;;;18.47;12.50;;;0.90;44.30;;;;;;5008503;28;20282;-79
2023/01/23 03:44:19;;;;;;;18.83;12.30;;;0.90;99.90;;;;;;5008062;28;20183;-81
2023/01/23 03:46:49;;;;;;;19.00;12.13;;;0.90;99.90;;;;;;5006687;28;20204;-79
2023/01/23 03:49:15;;;;;;;20.43;12.47;;;1.00;99.90;;;;;;5008115;28;20338;-79
2023/01/23 03:51:41;;;;;;;18.97;12.60;;;1.00;53.10;;;;;;5007119;28;20199;-79
2023/01/23 03:54:07;;;;;;;17.50;12.53;;;0.90;1.00;;;;;;5007639;28;20257;-79
2023/01/23 03:56:32;;;;;;;17.00;11.93;;;0.90;1.00;;;;;;5009081;28;20227;-79
2023/01/23 03:58:58;;;;;;;20.03;12.93;;;0.90;1.00;;;;;;5009656;28;20179;-79
2023/01/23 04:01:24;;;;;;;16.00;11.70;;;0.90;1.00;;;;;;5008213;28;20187;-79
2023/01/23 04:03:50;;;;;;;16.90;11.10;;;0.80;1.00;;;;;;5007571;28;20653;-79
2023/01/23 04:06:16;;;;;;;18.77;12.20;;;0.90;11.60;;;;;;5008859;28;20208;-79
2023/01/23 04:08:42;;;;;;;15.70;11.30;;;0.90;16.50;;;;;;5007485;28;20187;-80
2023/01/23 04:11:08;;;;;;;16.43;11.80;;;1.00;14.40;;;;;;5007323;28;20212;-79
2023/01/23 04:13:35;;;;;;;16.67;11.00;;;1.00;1.00;;;;;;5008441;28;20267;-80
2023/01/23 04:16:01;;;;;;;16.17;11.73;;;1.00;1.00;;;;;;5007104;28;20576;-80
2023/01/23 04:18:27;;;;;;;17.10;12.30;;;1.00;1.00;;;;;;5008559;28;20187;-79
2023/01/23 04:20:53;;;;;;;17.57;12.53;;;1.00;1.00;;;;;;5023917;28;20179;-79
2023/01/23 04:23:19;;;;;;;17.60;12.67;;;1.10;1.00;;;;;;5008840;28;20270;-79
2023/01/23 04:25:44;;;;;;;16.13;11.37;;;1.10;99.90;;;;;;5006931;28;20203;-79
2023/01/23 04:28:10;;;;;;;18.87;12.30;;;1.20;99.90;;;;;;5007135;28;20187;-79
2023/01/23 04:30:35;;;;;;;17.03;11.77;;;1.20;1.00;;;;;;5007705;28;20203;-79
2023/01/23 04:33:01;;;;;;;18.80;13.33;;;1.10;1.00;;;;;;5007367;28;20192;-80
2023/01/23 04:35:26;;;;;;;16.20;12.00;;;2.90;1.00;;;;;;5007746;28;20203;-79
2023/01/23 04:37:52;;;;;;;17.63;12.77;;;1.00;1.00;;;;;;5006309;28;20184;-79
2023/01/23 04:40:18;;;;;;;16.70;12.43;;;1.00;1.00;;;;;;5006832;28;20270;-80
2023/01/23 04:42:43;;;;;;;17.20;12.07;;;1.00;1.00;;;;;;5006579;28;20603;-80
2023/01/23 04:45:09;;;;;;;19.17;11.80;;;1.00;1.00;;;;;;5008624;28;20242;-79
2023/01/23 04:47:35;;;;;;;18.73;13.30;;;1.00;1.00;;;;;;5006507;28;20682;-79
2023/01/23 04:50:02;;;;;;;18.17;12.10;;;1.00;1.00;;;;;;5006994;28;20214;-80
2023/01/23 04:52:27;;;;;;;16.83;11.47;;;1.80;1.00;;;;;;5023463;28;20179;-79
2023/01/23 04:54:53;;;;;;;17.60;12.80;;;0.90;1.00;;;;;;5006547;28;20180;-79
2023/01/23 04:57:18;;;;;;;18.17;11.97;;;0.90;99.90;;;;;;5006902;28;20199;-80
2023/01/23 04:59:44;;;;;;;17.97;12.20;;;0.90;99.90;;;;;;5008173;28;20183;-80
2023/01/23 05:02:10;;;;;;;17.63;11.70;;;1.00;99.90;;;;;;5008498;28;20544;-80
2023/01/23 05:04:35;;;;;;;18.70;12.83;;;1.00;99.90;;;;;;5006421;28;20669;-79
2023/01/23 05:07:01;;;;;;;17.77;12.83;;;0.90;99.90;;;;;;5007528;28;20674;-80
2023/01/23 05:09:26;;;;;;;19.10;13.07;;;1.00;1.00;;;;;;5008111;28;20291;-79
2023/01/23 05:11:52;;;;;;;19.83;12.87;;;1.00;1.00;;;;;;5007409;28;20685;-80
2023/01/23 05:14:18;;;;;;;19.27;13.33;;;1.00;1.00;;;;;;5006519;28;20176;-79
2023/01/23 05:16:43;;;;;;;17.17;12.00;;;1.00;1.00;;;;;;5007403;28;20204;-79
2023/01/23 05:19:09;;;;;;;18.57;12.90;;;1.00;1.00;;;;;;5008147;28;20206;-79
2023/01/23 05:21:34;;;;;;;20.40;13.23;;;-0.80;1.00;;;;;;5006019;28;20646;-79
2023/01/23 05:24:00;;;;;;;18.17;12.53;;;1.00;99.90;;;;;;5006608;28;20191;-79
2023/01/23 05:26:26;;;;;;;17.90;13.03;;;1.00;99.90;;;;;;5007611;28;20207;-79
2023/01/23 05:28:51;;;;;;;15.80;12.03;;;1.00;99.90;;;;;;5022929;28;20704;-79
2023/01/23 05:31:17;;;;;;;18.87;13.43;;;1.00;99.90;;;;;;5006283;28;20215;-81
2023/01/23 05:33:42;;;;;;;18.90;13.40;;;1.00;86.20;;;;;;5007735;28;20203;-80
2023/01/23 05:36:08;;;;;;;21.27;14.60;;;1.00;1.00;;;;;;5007135;28;20729;-79
2023/01/23 05:38:33;;;;;;;19.63;13.83;;;1.00;1.00;;;;;;5006702;28;20186;-79
2023/01/23 05:40:59;;;;;;;21.23;13.80;;;1.00;1.00;;;;;;5006129;28;20196;-79
2023/01/23 05:43:25;;;;;;;22.73;14.60;;;1.00;1.00;;;;;;5022307;28;20215;-79
2023/01/23 05:45:50;;;;;;;21.37;13.90;;;1.00;1.00;;;;;;5006879;28;20624;-79
2023/01/23 05:48:16;;;;;;;19.50;13.77;;;1.00;1.00;;;;;;5005018;28;21052;-79
2023/01/23 05:50:41;;;;;;;23.00;15.20;;;1.00;1.00;;;;;;5007518;28;20575;-79
2023/01/23 05:53:07;;;;;;;23.17;15.53;;;1.00;1.00;;;;;;5007324;28;20195;-79
2023/01/23 05:55:32;;;;;;;22.07;15.43;;;0.90;1.00;;;;;;5007500;28;20181;-81
2023/01/23 05:57:58;;;;;;;22.73;15.23;;;0.90;1.00;;;;;;5004914;28;20242;-79
2023/01/23 06:00:23;;;;;;;26.57;16.10;;;0.90;1.00;;;;;;5007607;28;20222;-79
2023/01/23 06:02:49;;;;;;;24.67;16.13;;;0.80;1.00;;;;;;5005589;28;20196;-79
2023/01/23 06:05:15;;;;;;;23.47;15.10;;;0.90;19.70;;;;;;5021755;28;20219;-81
2023/01/23 06:07:40;;;;;;;25.70;15.87;;;0.80;67.20;;;;;;5004616;28;20203;-80
2023/01/23 06:10:07;;;;;;;21.90;14.43;;;0.80;99.90;;;;;;5005587;28;20226;-78
2023/01/23 06:12:32;;;;;;;22.67;14.70;;;0.80;99.90;;;;;;5006709;28;20191;-79
2023/01/23 06:14:58;;;;;;;24.50;15.47;;;0.90;99.90;;;;;;5005916;28;20449;-79
2023/01/23 06:17:23;;;;;;;23.43;15.23;;;0.90;99.90;;;;;;5006786;28;20215;-79
2023/01/23 06:19:49;;;;;;;25.10;16.67;;;0.90;99.90;;;;;;5005049;28;20253;-80
2023/01/23 06:22:14;;;;;;;25.43;16.57;;;1.00;99.90;;;;;;5005884;28;20902;-79
2023/01/23 06:24:40;;;;;;;24.13;15.77;;;1.00;99.90;;;;;;5006317;28;20334;-79
2023/01/23 06:27:07;;;;;;;22.27;14.67;;;1.00;99.90;;;;;;5004544;28;20257;-79
2023/01/23 06:29:34;;;;;;;22.63;15.00;;;1.00;98.70;;;;;;5005164;28;20203;-79
2023/01/23 06:32:00;;;;;;;21.60;14.47;;;1.00;80.10;;;;;;5004719;28;20350;-79
2023/01/23 06:34:25;;;;;;;21.10;14.03;;;1.00;45.60;;;;;;5006267;28;20684;-79
2023/01/23 06:36:51;;;;;;;20.00;13.80;;;1.00;20.30;;;;;;5005256;28;20200;-79
2023/01/23 06:39:16;;;;;;;22.47;14.90;;;1.00;1.00;;;;;;5006202;28;20183;-79
2023/01/23 06:41:42;;;;;;;23.77;15.47;;;1.00;1.00;;;;;;5006765;28;20179;-79
2023/01/23 06:44:08;;;;;;;21.63;14.50;;;1.00;1.00;;;;;;5004743;28;20558;-80
2023/01/23 06:46:34;;;;;;;24.97;15.77;;;1.00;1.00;;;;;;5006184;28;20218;-78
2023/01/23 06:48:59;;;;;;;21.57;14.83;;;1.00;1.00;;;;;;5005807;28;20274;-79
2023/01/23 06:51:25;;;;;;;25.10;15.70;;;0.90;1.00;;;;;;5007829;28;20238;-79
2023/01/23 06:53:50;;;;;;;24.30;14.67;;;0.90;1.00;;;;;;5006337;28;20184;-79
2023/01/23 06:56:16;;;;;;;24.87;15.20;;;0.90;1.00;;;;;;5004557;28;20246;-78
2023/01/23 06:58:45;;;;;;;23.90;14.37;;;0.90;54.20;;;;;;5005742;28;20621;-78
2023/01/23 07:01:18;;;;;;;25.17;14.97;;;0.80;99.90;;;;;;5006371;28;20241;-79
2023/01/23 07:03:44;;;;;;;29.27;17.00;;;0.80;99.90;;;;;;5005913;28;20215;-79
2023/01/23 07:06:11;;;;;;;27.57;15.13;;;0.90;99.90;;;;;;5005545;28;20226;-79
2023/01/23 07:08:38;;;;;;;28.20;15.87;;;0.80;99.90;;;;;;5006439;28;20198;-79
2023/01/23 07:11:03;;;;;;;28.10;15.90;;;0.90;99.90;;;;;;5010329;28;20753;-79
2023/01/23 07:13:29;;;;;;;28.77;15.73;;;0.90;99.90;;;;;;5008735;28;20198;-79
2023/01/23 07:15:55;;;;;;;27.20;15.93;;;0.90;99.90;;;;;;5009276;28;20199;-80
2023/01/23 07:18:21;;;;;;;29.73;16.53;;;0.90;1.00;;;;;;5007947;28;20246;-79
2023/01/23 07:20:47;;;;;;;29.23;16.03;;;0.80;1.00;;;;;;5011272;28;20195;-78
2023/01/23 07:23:12;;;;;;;28.37;15.57;;;0.80;1.00;;;;;;5014964;28;20188;-78
2023/01/23 07:25:38;;;;;;;28.03;15.67;;;0.90;1.00;;;;;;5013076;28;20609;-81
2023/01/23 07:28:04;;;;;;;35.07;17.03;;;0.90;1.00;;;;;;5010694;28;20179;-78
2023/01/23 07:30:31;;;;;;;33.13;17.20;;;0.80;1.00;;;;;;5010569;28;20210;-81
2023/01/23 07:32:57;;;;;;;30.77;16.47;;;0.80;27.30;;;;;;5009367;28;20192;-80
2023/01/23 07:35:23;;;;;;;32.63;16.93;;;0.80;99.90;;;;;;5016395;28;20241;-80
2023/01/23 07:37:49;;;;;;;32.20;17.03;;;0.80;99.90;;;;;;5016878;28;20192;-81
2023/01/23 07:40:14;;;;;;;33.27;17.50;;;0.90;99.90;;;;;;5012360;28;20197;-79
2023/01/23 07:42:40;;;;;;;33.33;16.50;;;0.90;99.90;;;;;;5017526;28;20195;-81
2023/01/23 07:45:08;;;;;;;29.73;15.23;;;0.90;99.90;;;;;;5016595;28;20186;-80
2023/01/23 07:47:34;;;;;;;32.80;16.30;;;0.90;99.90;;;;;;5013287;28;20214;-80
2023/01/23 07:50:00;;;;;;;33.27;16.07;;;0.90;99.90;;;;;;5012704;28;20824;-81
2023/01/23 07:52:25;;;;;;;30.30;16.13;;;0.90;1.00;;;;;;5010947;28;20171;-80
2023/01/23 07:54:51;;;;;;;31.73;16.33;;;0.90;1.00;;;;;;5010921;28;20202;-81
2023/01/23 07:57:16;;;;;;;31.23;15.97;;;0.90;1.00;;;;;;5009972;28;20211;-81
2023/01/23 07:59:42;;;;;;;29.83;15.70;;;0.90;1.00;;;;;;5009287;28;20195;-80
2023/01/23 08:02:09;;;;;;;34.03;16.43;;;0.90;1.00;;;;;;5009760;28;20190;-80
2023/01/23 08:04:35;;;;;;;33.87;17.27;;;1.00;1.00;;;;;;5008072;28;20192;-81
2023/01/23 08:07:00;;;;;;;34.13;17.10;;;1.00;1.00;;;;;;5010722;28;20214;-81
2023/01/23 08:09:26;;;;;;;29.27;15.97;;;1.00;1.00;;;;;;5011318;28;20207;-80
2023/01/23 08:11:52;;;;;;;30.50;16.10;;;1.00;1.00;;;;;;5010734;28;20203;-80
2023/01/23 08:14:18;;;;;;;28.90;15.70;;;1.00;1.00;;;;;;5009800;28;20206;-81
2023/01/23 08:16:47;;;;;;;30.67;16.47;;;1.00;1.00;;;;;;5008483;28;20294;-81
2023/01/23 08:19:12;;;;;;;28.80;15.47;;;1.00;1.00;;;;;;5010292;28;20191;-81
2023/01/23 08:21:38;;;;;;;31.23;17.10;;;1.00;1.00;;;;;;5010190;28;20187;-80
2023/01/23 08:24:03;;;;;;;34.03;17.03;;;1.00;1.00;;;;;;5009858;28;20187;-82
2023/01/23 08:26:29;;;;;;;30.77;15.93;;;1.00;1.00;;;;;;5006748;28;20238;-81
2023/01/23 08:28:55;;;;;;;29.17;15.67;;;1.20;1.00;;;;;;5009571;28;20188;-81
2023/01/23 08:31:20;;;;;;;33.50;17.33;;;1.20;1.00;;;;;;5009603;28;20302;-80
2023/01/23 08:33:46;;;;;;;27.40;15.17;;;1.20;1.00;;;;;;5007905;28;20729;-81
2023/01/23 08:36:12;;;;;;;41.50;29.90;;;2.50;1.00;;;;;;5004169;28;20215;-80
2023/01/23 08:38:38;;;;;;;33.57;24.07;;;1.30;1.00;;;;;;5004660;28;20176;-80
2023/01/23 08:41:04;;;;;;;43.83;25.43;;;1.30;1.00;;;;;;5006309;28;20191;-80
2023/01/23 08:43:30;;;;;;;129.67;45.57;;;1.20;99.90;;;;;;5007817;28;20196;-80
2023/01/23 08:45:57;;;;;;;71.43;33.60;;;1.20;99.90;;;;;;5004252;28;20215;-80
2023/01/23 08:48:24;;;;;;;54.73;27.77;;;1.20;99.90;;;;;;5006438;28;20192;-81
2023/01/23 08:50:56;;;;;;;52.43;27.13;;;1.10;99.90;;;;;;5005135;28;20772;-79
2023/01/23 08:53:22;;;;;;;221.33;102.83;;;1.10;1.00;;;;;;5005141;28;20246;-79
2023/01/23 08:55:48;;;;;;;36.27;21.17;;;1.10;1.00;;;;;;5018717;28;20204;-79
2023/01/23 08:58:13;;;;;;;46.53;26.70;;;1.20;1.00;;;;;;5005916;28;20251;-77
2023/01/23 09:00:39;;;;;;;94.70;51.90;;;1.20;1.00;;;;;;5003677;28;20215;-79
2023/01/23 09:03:05;;;;;;;49.00;28.70;;;1.20;1.00;;;;;;5000171;28;20187;-78
2023/01/23 09:05:31;;;;;;;36.03;18.20;;;1.20;1.00;;;;;;5003428;28;21256;-79
2023/01/23 09:07:57;;;;;;;49.33;32.30;;;1.30;1.00;;;;;;5005313;28;20175;-79
2023/01/23 09:10:24;;;;;;;27.03;15.67;;;1.30;1.00;;;;;;5003576;28;20311;-79
2023/01/23 09:12:51;;;;;;;27.53;15.60;;;1.40;1.00;;;;;;5004687;28;20844;-79
2023/01/23 09:15:17;;;;;;;30.13;14.97;;;1.40;1.00;;;;;;5003039;28;20610;-79
2023/01/23 09:17:42;;;;;;;26.20;15.73;;;1.50;1.00;;;;;;5019742;28;20235;-79
2023/01/23 09:20:09;;;;;;;26.77;15.27;;;1.60;1.00;;;;;;5004297;28;20191;-78
2023/01/23 09:22:34;;;;;;;29.00;16.70;;;1.60;99.90;;;;;;5004375;28;20227;-79
2023/01/23 09:25:00;;;;;;;26.23;16.47;;;1.60;99.90;;;;;;5003762;28;20258;-77
2023/01/23 09:27:25;;;;;;;22.90;13.67;;;1.50;1.00;;;;;;5004230;28;20242;-79
2023/01/23 09:29:51;;;;;;;41.97;25.13;;;1.50;1.00;;;;;;5003493;28;20255;-78
2023/01/23 09:32:16;;;;;;;48.10;33.03;;;1.50;1.00;;;;;;5000169;28;20415;-79
2023/01/23 09:34:42;;;;;;;82.30;54.20;;;;;;;;;;5002718;28;20517;-79
2023/01/23 09:37:09;;;;;;;26.03;15.80;;;;;;;;;;5004791;28;20215;-79
2023/01/23 09:39:35;;;;;;;44.83;29.97;;;;;;;;;;5004872;28;20198;-79
2023/01/23 09:42:07;;;;;;;24.23;15.37;;;;;;;;;;5002753;28;20222;-78
2023/01/23 09:44:38;;;;;;;25.13;16.33;;;;;;;;;;5002204;28;20621;-78
2023/01/23 09:47:07;;;;;;;31.07;19.27;;;;;;;;;;5004576;28;20208;-79
2023/01/23 09:49:42;;;;;;;28.07;17.50;;;;;;;;;;5004280;28;20207;-79
2023/01/23 09:52:28;;;;;;;37.87;28.37;;;;;;;;;;5002834;28;20241;-78
2023/01/23 09:54:59;;;;;;;36.57;26.37;;;;;;;;;;5004079;28;20199;-78
2023/01/23 09:57:27;;;;;;;38.77;27.40;;;;;;;;;;5004910;28;20318;-78
2023/01/23 09:59:58;;;;;;;47.63;35.00;;;;;;;;;;5005218;28;20216;-79
2023/01/23 10:02:25;;;;;;;32.47;20.03;;;;;;;;;;5005059;28;20270;-78
2023/01/23 10:04:52;;;;;;;33.13;20.10;;;;;;;;;;5003497;28;20214;-78
2023/01/23 10:07:23;;;;;;;29.60;16.83;;;;;;;;;;5002954;28;20295;-78
2023/01/23 10:09:52;;;;;;;47.77;29.83;;;;;;;;;;5002929;28;20219;-78
2023/01/23 10:12:28;;;;;;;26.30;15.37;;;;;;;;;;5002252;28;20226;-78
2023/01/23 10:14:57;;;;;;;31.00;18.10;;;;;;;;;;5001394;28;20692;-78
2023/01/23 10:17:23;;;;;;;26.00;15.13;;;;;;;;;;5002627;28;20262;-82
2023/01/23 10:19:49;;;;;;;59.63;40.10;;;;;;;;;;5006551;28;20192;-79
2023/01/23 10:22:18;;;;;;;25.63;15.73;;;;;;;;;;5004095;28;20206;-79
2023/01/23 10:24:49;;;;;;;28.20;16.43;;;;;;;;;;5006316;28;20226;-80
2023/01/23 10:27:37;;;;;;;29.00;17.33;;;;;;;;;;5006308;28;21244;-79
2023/01/23 10:30:18;;;;;;;29.10;19.13;;;;;;;;;;5004200;28;20210;-80
2023/01/23 10:32:52;;;;;;;33.10;20.30;;;;;;;;;;5003866;28;20206;-80
2023/01/23 10:35:18;;;;;;;49.67;37.17;;;;;;;;;;5019403;28;20956;-80
2023/01/23 10:38:00;;;;;;;26.27;17.20;;;;;;;;;;5004445;28;20207;-81
2023/01/23 10:43:19;;;;;;;27.30;16.47;;;;;;;;;;5004925;28;20262;-80
2023/01/23 10:45:46;;;;;;;25.77;15.03;;;;;;;;;;5007423;28;20234;-80
2023/01/23 10:48:28;;;;;;;24.67;14.70;;;;;;;;;;5008458;28;20782;-80
2023/01/23 10:50:54;;;;;;;28.73;17.50;;;;;;;;;;5008182;28;20314;-80
2023/01/23 10:53:20;;;;;;;32.63;21.10;;;;;;;;;;5004466;28;20191;-80
2023/01/23 10:55:46;;;;;;;26.30;15.80;;;;;;;;;;5006713;28;20442;-80
2023/01/23 10:58:28;;;;;;;22.33;13.77;;;;;;;;;;5009463;28;20183;-80
2023/01/23 11:00:55;;;;;;;22.70;14.70;;;;;;;;;;5009862;28;20681;-79
2023/01/23 11:03:21;;;;;;;72.17;47.90;;;;;;;;;;5005130;28;20674;-81
2023/01/23 11:05:55;;;;;;;49.67;34.90;;;;;;;;;;5003108;28;20219;-80
2023/01/23 11:08:26;;;;;;;24.00;15.63;;;;;;;;;;5004671;28;20196;-81
2023/01/23 11:10:52;;;;;;;26.13;17.27;;;;;;;;;;5017225;28;20323;-79
2023/01/23 11:13:36;;;;;;;33.47;22.50;;;;;;;;;;5019773;28;20725;-80
2023/01/23 11:16:02;;;;;;;25.07;15.70;;;;;;;;;;5003595;28;20241;-80
2023/01/23 11:18:38;;;;;;;26.50;16.20;;;;;;;;;;5001763;28;20604;-80
2023/01/23 11:21:04;;;;;;;25.90;15.93;;;;;;;;;;5001346;28;20302;-80
2023/01/23 11:23:33;;;;;;;25.47;15.33;;;;;;;;;;5000794;28;20199;-80
2023/01/23 11:25:59;;;;;;;53.83;36.00;;;;;;;;;;5016658;28;20329;-79
2023/01/23 11:28:32;;;;;;;48.00;32.23;;;;;;;;;;5003561;28;20731;-80
2023/01/23 11:31:04;;;;;;;31.23;19.43;;;;;;;;;;5003296;28;20286;-79
2023/01/23 11:33:37;;;;;;;23.30;14.83;;;;;;;;;;5004233;28;20761;-80
2023/01/23 11:36:18;;;;;;;23.30;14.17;;;;;;;;;;5004456;28;20303;-79
2023/01/23 11:38:55;;;;;;;26.57;17.57;;;;;;;;;;5004428;28;20230;-81
2023/01/23 11:41:28;;;;;;;24.53;15.20;;;;;;;;;;5002572;28;20194;-80
2023/01/23 11:43:54;;;;;;;36.27;27.40;;;2.30;99.90;;;;;;5001523;28;20188;-80
2023/01/23 11:46:34;;;;;;;22.77;14.57;;;2.20;99.90;;;;;;5007654;28;20242;-80
2023/01/23 11:49:19;;;;;;;24.50;15.27;;;2.10;99.90;;;;;;5009426;28;20277;-80
2023/01/23 11:51:59;;;;;;;27.63;18.80;;;2.00;99.90;;;;;;5017545;28;20187;-79
2023/01/23 11:54:46;;;;;;;26.27;15.47;;;2.00;1.00;;;;;;5017171;28;20222;-81
2023/01/23 11:57:49;;;;;;;22.77;14.17;;;2.00;1.00;;;;;;5017132;28;20204;-80
2023/01/23 12:00:30;;;;;;;25.50;14.93;;;2.10;1.00;;;;;;5004427;28;20187;-80
2023/01/23 12:03:17;;;;;;;21.83;13.87;;;2.10;1.00;;;;;;5003151;28;20192;-79
2023/01/23 12:05:47;;;;;;;28.60;19.17;;;2.20;1.00;;;;;;5003341;28;20511;-80
2023/01/23 12:08:30;;;;;;;20.43;13.40;;;2.20;1.00;;;;;;5004761;28;20985;-80
2023/01/23 12:11:15;;;;;;;20.03;12.90;;;2.40;99.90;;;;;;5004213;28;20277;-80
2023/01/23 12:14:03;;;;;;;21.03;13.07;;;2.40;99.90;;;;;;5005110;28;20278;-81
2023/01/23 12:16:46;;;;;;;19.70;13.70;;;2.40;99.90;;;;;;5003795;28;20724;-80
2023/01/23 12:19:38;;;;;;;19.57;12.43;;;2.40;99.90;;;;;;5002445;28;20187;-80
2023/01/23 12:22:24;;;;;;;21.13;13.17;;;2.30;1.00;;;;;;5003622;28;20191;-82
2023/01/23 12:25:15;;;;;;;17.63;12.83;;;2.30;1.00;;;;;;5005130;28;20566;-81
2023/01/23 12:27:47;;;;;;;18.57;13.20;;;2.40;99.90;;;;;;5020872;28;20222;-80
2023/01/23 12:30:25;;;;;;;19.17;12.83;;;2.40;99.90;;;;;;5004777;28;20772;-81
2023/01/23 12:33:27;;;;;;;17.47;12.23;;;2.40;99.90;;;;;;5000739;28;20197;-81
2023/01/23 12:36:21;;;;;;;16.83;11.97;;;2.40;99.90;;;;;;5017155;28;20288;-81
2023/01/23 12:38:58;;;;;;;16.80;11.50;;;2.40;99.90;;;;;;5003841;28;20187;-81
2023/01/23 12:41:45;;;;;;;15.23;11.07;;;2.50;99.90;;;;;;5001235;28;20201;-80
2023/01/23 12:44:49;;;;;;;16.80;11.30;;;2.60;99.90;;;;;;5016759;28;20581;-80
2023/01/23 12:47:41;;;;;;;16.80;11.27;;;2.30;99.90;;;;;;5001572;28;20214;-81
2023/01/23 12:50:22;;;;;;;66.00;38.50;;;2.30;66.60;;;;;;5013832;28;20704;-81
2023/01/23 12:52:59;;;;;;;45.27;30.60;;;2.40;52.60;;;;;;5001835;28;20207;-81
2023/01/23 12:55:45;;;;;;;26.93;18.50;;;2.30;1.00;;;;;;5002975;28;20195;-80
2023/01/23 12:58:17;;;;;;;24.30;17.57;;;2.30;1.00;;;;;;5003099;28;20242;-81
2023/01/23 13:00:54;;;;;;;21.43;17.57;;;2.30;1.00;;;;;;5003459;28;20539;-81
2023/01/23 13:03:32;;;;;;;16.03;11.53;;;2.30;1.00;;;;;;5017638;28;20670;-81
2023/01/23 13:06:00;;;;;;;120.10;73.67;;;2.20;1.00;;;;;;5002990;28;20207;-81
2023/01/23 13:08:28;;;;;;;72.97;57.23;;;2.10;1.00;;;;;;5004064;28;20613;-81
2023/01/23 13:13:46;;;;;;;24.70;17.73;;;2.10;99.90;;;;;;5005465;28;20194;-82
2023/01/23 13:16:17;;;;;;;30.37;23.23;;;2.10;99.90;;;;;;5002272;28;20764;-81
2023/01/23 13:22:29;;;;;;;32.70;21.03;;;2.20;99.90;;;;;;4998495;28;20218;-83